Time;durP1;ratioP1;P1;durP2;ratioP2;P2;SDS_P1;SDS_P2;PMS_P1;PMS_P2;Temp;Humidity;BMP_temperature;BMP_pressure;BME280_temperature;BME280_humidity;BME280_pressure;Samples;Min_cycle;Max_cycle;Signal;HPM_P1;HPM_P2
2021/03/20 00:00:11;;;;;;;18.33;3.50;;;;;;;;;;4980149;28;20257;-68
2021/03/20 00:02:37;;;;;;;17.75;3.88;;;;;;;;;;4980052;28;20600;-71
2021/03/20 00:05:03;;;;;;;17.65;4.75;;;;;;;;;;4980978;28;20027;-68
2021/03/20 00:07:30;;;;;;;21.13;4.85;;;;;;;;;;4980598;28;20034;-70
2021/03/20 00:09:56;;;;;;;17.67;6.22;;;;;;;;;;4976111;28;20431;-69
2021/03/20 00:12:22;;;;;;;21.17;6.45;;;;;;;;;;4973561;28;20059;-69
2021/03/20 00:14:48;;;;;;;22.77;6.63;;;;;;;;;;4976524;28;20027;-69
2021/03/20 00:17:14;;;;;;;23.77;7.45;;;;;;;;;;4975230;28;20038;-72
2021/03/20 00:19:40;;;;;;;14.80;7.18;;;;;;;;;;4972360;28;20023;-70
2021/03/20 00:22:06;;;;;;;20.20;7.05;;;;;;;;;;4976227;28;20070;-69
2021/03/20 00:24:32;;;;;;;17.60;7.18;;;;;;;;;;4980667;28;20034;-69
2021/03/20 00:26:58;;;;;;;21.10;8.20;;;;;;;;;;4978599;28;20026;-70
2021/03/20 00:29:24;;;;;;;16.67;6.65;;;;;;;;;;4979939;28;20027;-70
2021/03/20 00:31:50;;;;;;;14.20;7.03;;;;;;;;;;4984311;28;20023;-70
2021/03/20 00:34:16;;;;;;;13.05;4.70;;;;;;;;;;4974206;28;20031;-69
2021/03/20 00:36:42;;;;;;;12.63;6.38;;;;;;;;;;4980638;28;20436;-69
2021/03/20 00:39:08;;;;;;;14.88;7.32;;;;;;;;;;4985745;28;20030;-69
2021/03/20 00:41:35;;;;;;;17.35;7.30;;;;;;;;;;4978763;28;20129;-70
2021/03/20 00:44:02;;;;;;;22.17;8.30;;;;;;;;;;4988921;28;20050;-70
2021/03/20 00:46:28;;;;;;;19.35;9.40;;;;;;;;;;4985532;28;20161;-70
2021/03/20 00:48:54;;;;;;;23.92;9.10;;;;;;;;;;4980951;28;20157;-69
2021/03/20 00:51:20;;;;;;;21.83;10.00;;;;;;;;;;4989706;28;20096;-69
2021/03/20 00:53:46;;;;;;;23.27;11.98;;;;;;;;;;4986515;28;20042;-70
2021/03/20 00:56:12;;;;;;;26.52;9.52;;;;;;;;;;4990560;28;20399;-70
2021/03/20 00:58:41;;;;;;;20.08;8.65;;;;;;;;;;4985081;28;20022;-69
2021/03/20 01:01:07;;;;;;;23.17;11.02;;;;;;;;;;4988440;28;20027;-70
2021/03/20 01:03:34;;;;;;;19.08;9.70;;;;;;;;;;4989214;28;20396;-70
2021/03/20 01:06:00;;;;;;;20.35;8.77;;;;;;;;;;4990808;28;20504;-69
2021/03/20 01:08:26;;;;;;;16.13;7.57;;;;;;;;;;4986826;28;20031;-69
2021/03/20 01:10:53;;;;;;;23.75;8.88;;;;;;;;;;4982283;28;20436;-69
2021/03/20 01:13:19;;;;;;;22.85;8.43;;;;;;;;;;4980041;28;20030;-71
2021/03/20 01:15:46;;;;;;;17.67;6.90;;;;;;;;;;4976744;28;20570;-69
2021/03/20 01:18:12;;;;;;;20.27;8.27;;;;;;;;;;4986002;28;20050;-70
2021/03/20 01:20:39;;;;;;;15.43;6.32;;;;;;;;;;4988900;28;20029;-69
2021/03/20 01:23:05;;;;;;;14.82;7.28;;;;;;;;;;4979076;28;20076;-70
2021/03/20 01:25:32;;;;;;;21.70;7.70;;;;;;;;;;4976979;28;20023;-70
2021/03/20 01:27:58;;;;;;;16.15;7.07;;;;;;;;;;4982154;28;20484;-69
2021/03/20 01:30:27;;;;;;;16.02;6.50;;;;;;;;;;4989572;28;20025;-69
2021/03/20 01:32:53;;;;;;;18.90;7.43;;;;;;;;;;4986741;28;20038;-70
2021/03/20 01:35:19;;;;;;;17.27;7.78;;;;;;;;;;4985428;28;20045;-69
2021/03/20 01:37:45;;;;;;;23.65;7.80;;;;;;;;;;4984549;28;20030;-69
2021/03/20 01:40:12;;;;;;;16.23;8.10;;;;;;;;;;4980952;28;20034;-69
2021/03/20 01:42:44;;;;;;;15.30;8.20;;;;;;;;;;4979868;28;20117;-69
2021/03/20 01:45:16;;;;;;;20.05;9.10;;;;;;;;;;4981510;28;20563;-70
2021/03/20 01:47:52;;;;;;;21.83;8.63;;;;;;;;;;4977015;28;20106;-69
2021/03/20 01:50:23;;;;;;;17.83;8.75;;;;;;;;;;4970640;28;20019;-69
2021/03/20 01:52:53;;;;;;;16.95;9.15;;;;;;;;;;4955331;28;884220;-69
2021/03/20 01:55:20;;;;;;;21.83;9.43;;;;;;;;;;4990531;28;20052;-69
2021/03/20 01:57:54;;;;;;;24.83;9.38;;;;;;;;;;4989525;28;20034;-69
2021/03/20 02:00:21;;;;;;;23.27;10.63;;;;;;;;;;4990726;28;20054;-69
2021/03/20 02:02:47;;;;;;;27.45;10.57;;;;;;;;;;4982526;28;20034;-69
2021/03/20 02:05:15;;;;;;;22.15;10.25;;;;;;;;;;4994158;28;20105;-69
2021/03/20 02:07:41;;;;;;;21.88;10.98;;;;;;;;;;4987545;28;20102;-69
2021/03/20 02:10:07;;;;;;;27.83;12.95;;;;;;;;;;4991613;28;20022;-70
2021/03/20 02:12:36;;;;;;;27.98;12.32;;;;;;;;;;4992567;28;20026;-69
2021/03/20 02:15:15;;;;;;;25.55;12.60;;;;;;;;;;4992658;28;20038;-69
2021/03/20 02:17:47;;;;;;;27.40;14.63;;;;;;;;;;4982527;28;20049;-69
2021/03/20 02:20:30;;;;;;;30.00;12.48;;;;;;;;;;4992839;28;20022;-69
2021/03/20 02:23:17;;;;;;;35.10;14.73;;;;;;;;;;4992870;28;20118;-69
2021/03/20 02:26:01;;;;;;;31.38;15.10;;;;;;;;;;4983510;28;20034;-69
2021/03/20 02:28:46;;;;;;;27.10;15.77;;;;;;;;;;4982435;28;20046;-69
2021/03/20 02:31:12;;;;;;;35.15;16.42;;;;;;;;;;4994490;28;20030;-69
2021/03/20 02:33:44;;;;;;;32.80;17.00;;;;;;;;;;4985678;28;20026;-69
2021/03/20 02:36:29;;;;;;;30.77;16.65;;;;;;;;;;4988426;28;20105;-69
2021/03/20 02:38:57;;;;;;;33.08;14.60;;;;;;;;;;4987610;28;20041;-69
2021/03/20 02:41:23;;;;;;;31.58;16.75;;;;;;;;;;4992771;28;20026;-69
2021/03/20 02:44:12;;;;;;;33.90;16.30;;;;;;;;;;4981979;28;20034;-70
2021/03/20 02:46:49;;;;;;;39.10;20.48;;;;;;;;;;4983300;28;20533;-69
2021/03/20 02:49:15;;;;;;;37.63;19.23;;;;;;;;;;4993098;28;20566;-69
2021/03/20 02:51:44;;;;;;;31.00;16.40;;;;;;;;;;4987034;28;20034;-69
2021/03/20 02:54:13;;;;;;;34.67;19.65;;;;;;;;;;4984028;28;20607;-69
2021/03/20 02:57:11;;;;;;;41.95;20.50;;;;;;;;;;4983289;28;20479;-69
2021/03/20 02:59:42;;;;;;;37.70;21.75;;;;;;;;;;4952889;28;20121;-69
2021/03/20 03:02:11;;;;;;;29.03;15.07;;;;;;;;;;4994175;28;20114;-69
2021/03/20 03:04:57;;;;;;;41.17;19.23;;;;;;;;;;4981877;28;20034;-69
2021/03/20 03:07:29;;;;;;;40.05;20.48;;;;;;;;;;4979651;28;20063;-69
2021/03/20 03:09:58;;;;;;;39.78;18.73;;;;;;;;;;4985326;28;20566;-70
2021/03/20 03:12:27;;;;;;;36.97;20.02;;;;;;;;;;4992479;28;20030;-69
2021/03/20 03:14:53;;;;;;;34.92;20.48;;;;;;;;;;4987458;28;20027;-69
2021/03/20 03:17:20;;;;;;;39.15;21.92;;;;;;;;;;4990579;28;20026;-70
2021/03/20 03:19:49;;;;;;;41.15;20.80;;;;;;;;;;4978572;28;20516;-69
2021/03/20 03:22:23;;;;;;;39.95;21.20;;;;;;;;;;4993201;28;20033;-70
2021/03/20 03:24:51;;;;;;;43.05;23.67;;;;;;;;;;4983852;28;20023;-70
2021/03/20 03:27:18;;;;;;;43.25;23.90;;;;;;;;;;4986939;28;20031;-69
2021/03/20 03:29:44;;;;;;;43.88;22.35;;;;;;;;;;4990232;28;20073;-69
2021/03/20 03:32:20;;;;;;;41.33;22.65;;;;;;;;;;4993774;28;20117;-69
2021/03/20 03:34:55;;;;;;;45.13;24.30;;;;;;;;;;4988624;28;20511;-70
2021/03/20 03:37:21;;;;;;;46.47;23.15;;;;;;;;;;4978971;28;20073;-69
2021/03/20 03:40:08;;;;;;;45.95;23.38;;;;;;;;;;4978527;28;20023;-70
2021/03/20 03:42:34;;;;;;;49.40;24.00;;;;;;;;;;4980786;28;20101;-69
2021/03/20 03:45:00;;;;;;;48.95;23.65;;;;;;;;;;4979689;28;20041;-70
2021/03/20 03:47:28;;;;;;;42.53;21.83;;;;;;;;;;4984894;28;20026;-69
2021/03/20 03:49:56;;;;;;;43.55;22.25;;;;;;;;;;4991282;28;20026;-69
2021/03/20 03:52:22;;;;;;;44.97;23.75;;;;;;;;;;4981560;28;20456;-69
2021/03/20 03:54:49;;;;;;;41.92;23.77;;;;;;;;;;4988203;28;20053;-70
2021/03/20 03:57:20;;;;;;;47.85;23.85;;;;;;;;;;4983618;28;20523;-69
2021/03/20 03:59:46;;;;;;;;;;;;;;;;;;4984505;28;20038;-69
2021/03/20 04:02:17;;;;;;;47.95;23.83;;;;;;;;;;4990653;28;19937;-70
2021/03/20 04:04:52;;;;;;;45.13;21.90;;;;;;;;;;4985009;28;20041;-70
2021/03/20 04:07:34;;;;;;;40.63;22.83;;;;;;;;;;4981717;28;20018;-69
2021/03/20 04:10:09;;;;;;;40.65;22.02;;;;;;;;;;4988386;28;20045;-69
2021/03/20 04:12:38;;;;;;;41.83;22.13;;;;;;;;;;4990041;28;20117;-69
2021/03/20 04:15:07;;;;;;;42.95;21.05;;;;;;;;;;4988239;28;20018;-69
2021/03/20 04:17:44;;;;;;;40.15;21.63;;;;;;;;;;4983758;28;20449;-69
2021/03/20 04:20:23;;;;;;;42.65;23.00;;;;;;;;;;4988269;28;20042;-69
2021/03/20 04:22:58;;;;;;;47.95;22.30;;;;;;;;;;4984977;28;20034;-69
2021/03/20 04:25:39;;;;;;;43.85;22.10;;;;;;;;;;4984662;28;20023;-69
2021/03/20 04:28:05;;;;;;;46.72;23.02;;;;;;;;;;4986307;28;20117;-69
2021/03/20 04:30:33;;;;;;;44.95;23.38;;;;;;;;;;4981045;28;20030;-70
2021/03/20 04:33:05;;;;;;;46.83;22.45;;;;;;;;;;4990341;28;20499;-68
2021/03/20 04:35:35;;;;;;;52.85;24.95;;;;;;;;;;4982537;28;20023;-69
2021/03/20 04:38:02;;;;;;;41.83;22.38;;;;;;;;;;4990725;28;20030;-69
2021/03/20 04:40:40;;;;;;;47.78;22.35;;;;;;;;;;4988470;28;20105;-69
2021/03/20 04:43:08;;;;;;;47.08;22.77;;;;;;;;;;4976895;28;20045;-70
2021/03/20 04:45:38;;;;;;;43.15;22.90;;;;;;;;;;4984398;28;20089;-69
2021/03/20 04:48:06;;;;;;;39.22;20.65;;;;;;;;;;4991200;28;20032;-69
2021/03/20 04:50:32;;;;;;;42.30;22.85;;;;;;;;;;4988440;28;20034;-69
2021/03/20 04:53:00;;;;;;;36.97;21.30;;;;;;;;;;4987756;28;20081;-69
2021/03/20 04:55:27;;;;;;;42.83;22.90;;;;;;;;;;4983801;28;20030;-69
2021/03/20 04:58:22;;;;;;;36.10;21.20;;;;;;;;;;4991503;28;20053;-69
2021/03/20 05:00:50;;;;;;;33.78;20.17;;;;;;;;;;4978212;28;20125;-69
2021/03/20 05:03:32;;;;;;;39.85;21.58;;;;;;;;;;4986868;28;20030;-69
2021/03/20 05:06:08;;;;;;;42.03;22.70;;;;;;;;;;4980173;28;20058;-69
2021/03/20 05:08:39;;;;;;;40.33;21.27;;;;;;;;;;4985531;28;20026;-69
2021/03/20 05:11:10;;;;;;;37.15;21.30;;;;;;;;;;4991480;28;20026;-69
2021/03/20 05:13:51;;;;;;;43.60;22.27;;;;;;;;;;4991230;28;20030;-69
2021/03/20 05:16:17;;;;;;;34.83;20.03;;;;;;;;;;4989102;28;20069;-69
2021/03/20 05:18:43;;;;;;;42.38;21.75;;;;;;;;;;4986263;28;20304;-69
2021/03/20 05:21:14;;;;;;;41.90;20.35;;;;;;;;;;4990567;28;20085;-69
2021/03/20 05:23:40;;;;;;;34.60;21.52;;;;;;;;;;4978324;28;20519;-69
2021/03/20 05:26:06;;;;;;;40.72;23.20;;;;;;;;;;4981546;28;20110;-69
2021/03/20 05:28:32;;;;;;;36.08;20.55;;;;;;;;;;4990053;28;20023;-69
2021/03/20 05:31:00;;;;;;;34.53;19.67;;;;;;;;;;4987188;28;20030;-69
2021/03/20 05:33:26;;;;;;;36.40;19.67;;;;;;;;;;4982796;28;20030;-69
2021/03/20 05:35:52;;;;;;;35.88;21.38;;;;;;;;;;4984240;28;20080;-70
2021/03/20 05:38:18;;;;;;;38.92;20.33;;;;;;;;;;4977908;28;20030;-70
2021/03/20 05:40:44;;;;;;;38.03;20.55;;;;;;;;;;4982938;28;20038;-69
2021/03/20 05:43:21;;;;;;;39.38;20.75;;;;;;;;;;4990339;28;20165;-70
2021/03/20 05:46:07;;;;;;;41.63;21.92;;;;;;;;;;4981765;28;20105;-69
2021/03/20 05:48:35;;;;;;;37.53;20.17;;;;;;;;;;4987496;28;20511;-69
2021/03/20 05:51:10;;;;;;;41.95;21.30;;;;;;;;;;4980951;28;20121;-69
2021/03/20 05:53:46;;;;;;;51.85;23.67;;;;;;;;;;4989450;28;20516;-69
2021/03/20 05:56:33;;;;;;;41.47;21.83;;;;;;;;;;4981653;28;20539;-69
2021/03/20 05:59:05;;;;;;;38.22;21.95;;;;;;;;;;4987329;28;20053;-69
2021/03/20 06:01:31;;;;;;;38.70;22.10;;;;;;;;;;4986755;28;20046;-69
2021/03/20 06:04:21;;;;;;;38.17;20.25;;;;;;;;;;4983913;28;20034;-70
2021/03/20 06:06:59;;;;;;;42.42;20.92;;;;;;;;;;4981758;28;20042;-69
2021/03/20 06:09:31;;;;;;;43.45;22.23;;;;;;;;;;4978089;28;20034;-69
2021/03/20 06:12:05;;;;;;;46.72;21.85;;;;;;;;;;4976692;28;20424;-70
2021/03/20 06:14:40;;;;;;;41.53;21.60;;;;;;;;;;4982027;28;20038;-70
2021/03/20 06:17:13;;;;;;;38.33;20.90;;;;;;;;;;4976091;28;20027;-69
2021/03/20 06:19:39;;;;;;;41.58;21.90;;;;;;;;;;4980093;28;20061;-70
2021/03/20 06:22:25;;;;;;;46.05;22.30;;;;;;;;;;4983131;28;20023;-69
2021/03/20 06:24:51;;;;;;;40.67;21.70;;;;;;;;;;4954346;28;20042;-70
2021/03/20 06:27:21;;;;;;;44.30;23.10;;;;;;;;;;4976147;28;20038;-69
2021/03/20 06:29:55;;;;;;;55.45;27.55;;;;;;;;;;4979478;28;20037;-69
2021/03/20 06:32:22;;;;;;;49.90;25.15;;;;;;;;;;4982820;28;20558;-69
2021/03/20 06:34:56;;;;;;;50.92;26.42;;;;;;;;;;4983251;28;20035;-70
2021/03/20 06:37:24;;;;;;;50.50;27.90;;;;;;;;;;4982435;28;20057;-69
2021/03/20 06:39:53;;;;;;;51.65;27.75;;;;;;;;;;4978256;28;20023;-69
2021/03/20 06:42:19;;;;;;;46.40;26.00;;;;;;;;;;4979727;28;20045;-69
2021/03/20 06:44:46;;;;;;;49.25;27.02;;;;;;;;;;4979091;28;20040;-69
2021/03/20 06:47:17;;;;;;;42.83;26.83;;;;;;;;;;4979696;28;20023;-69
2021/03/20 06:49:45;;;;;;;42.40;26.40;;;;;;;;;;4977758;28;20065;-69
2021/03/20 06:52:16;;;;;;;43.58;24.60;;;;;;;;;;4981316;28;20063;-69
2021/03/20 06:54:42;;;;;;;39.92;25.15;;;;;;;;;;4986027;28;20026;-70
2021/03/20 06:57:11;;;;;;;38.55;24.02;;;;;;;;;;4987724;28;20031;-69
2021/03/20 06:59:37;;;;;;;38.17;23.65;;;;;;;;;;4982106;28;20022;-69
2021/03/20 07:02:14;;;;;;;36.15;22.63;;;;;;;;;;4974269;28;20055;-69
2021/03/20 07:04:40;;;;;;;39.10;24.30;;;;;;;;;;4984000;28;20109;-69
2021/03/20 07:07:25;;;;;;;39.45;23.08;;;;;;;;;;4982034;28;20022;-69
2021/03/20 07:09:53;;;;;;;42.35;23.90;;;;;;;;;;4985691;28;20504;-69
2021/03/20 07:12:21;;;;;;;34.17;21.80;;;;;;;;;;4980592;28;20019;-69
2021/03/20 07:14:47;;;;;;;34.22;22.13;;;;;;;;;;4983067;28;20073;-69
2021/03/20 07:17:22;;;;;;;40.10;23.55;;;;;;;;;;4985221;28;20412;-70
2021/03/20 07:20:09;;;;;;;35.47;22.25;;;;;;;;;;4982119;28;20500;-69
2021/03/20 07:22:44;;;;;;;41.55;23.27;;;;;;;;;;4991933;28;20466;-69
2021/03/20 07:25:33;;;;;;;42.50;22.88;;;;;;;;;;4987599;28;20029;-70
2021/03/20 07:28:05;;;;;;;34.38;21.30;;;;;;;;;;4977780;28;20041;-69
2021/03/20 07:30:46;;;;;;;37.30;21.70;;;;;;;;;;4984001;28;20038;-69
2021/03/20 07:33:26;;;;;;;37.75;21.02;;;;;;;;;;4984988;28;20069;-69
2021/03/20 07:35:52;;;;;;;31.85;20.92;;;;;;;;;;4982675;28;20038;-69
2021/03/20 07:38:23;;;;;;;37.78;23.55;;;;;;;;;;4980598;28;20031;-69
2021/03/20 07:40:49;;;;;;;31.27;21.77;;;;;;;;;;4987057;28;20026;-69
2021/03/20 07:43:15;;;;;;;32.15;20.63;;;;;;;;;;4980834;28;20030;-69
2021/03/20 07:45:45;;;;;;;29.98;19.67;;;;;;;;;;4986881;28;20037;-69
2021/03/20 07:48:27;;;;;;;34.67;20.65;;;;;;;;;;4986425;28;20137;-69
2021/03/20 07:51:12;;;;;;;34.50;21.63;;;;;;;;;;4981308;28;20543;-70
2021/03/20 07:53:40;;;;;;;29.45;18.60;;;;;;;;;;4990058;28;20047;-70
2021/03/20 07:56:06;;;;;;;29.42;20.60;;;;;;;;;;4989951;28;20105;-69
2021/03/20 07:58:38;;;;;;;30.80;19.42;;;;;;;;;;4979572;28;20515;-69
2021/03/20 08:01:06;;;;;;;32.35;19.05;;;;;;;;;;4982489;28;20051;-70
2021/03/20 08:03:45;;;;;;;31.75;17.48;;;;;;;;;;4987360;28;20121;-69
2021/03/20 08:06:11;;;;;;;31.25;18.10;;;;;;;;;;4986076;28;20026;-69
2021/03/20 08:08:38;;;;;;;30.60;18.30;;;;;;;;;;4986383;28;20022;-69
2021/03/20 08:11:04;;;;;;;27.00;17.48;;;;;;;;;;4992119;28;20057;-69
2021/03/20 08:13:37;;;;;;;24.98;17.00;;;;;;;;;;4987026;28;20034;-70
2021/03/20 08:16:04;;;;;;;26.88;17.27;;;;;;;;;;4991691;28;20031;-69
2021/03/20 08:18:35;;;;;;;26.92;16.75;;;;;;;;;;4981845;28;20031;-69
2021/03/20 08:21:16;;;;;;;31.35;18.98;;;;;;;;;;4983172;28;20092;-69
2021/03/20 08:23:42;;;;;;;29.75;17.15;;;;;;;;;;4980425;28;20126;-69
2021/03/20 08:26:18;;;;;;;29.48;17.42;;;;;;;;;;4984398;28;20022;-69
2021/03/20 08:29:05;;;;;;;25.67;17.52;;;;;;;;;;4977250;28;20022;-69
2021/03/20 08:31:48;;;;;;;26.58;16.50;;;;;;;;;;4983127;28;20034;-70
2021/03/20 08:34:28;;;;;;;25.45;16.45;;;;;;;;;;4986680;28;20035;-69
2021/03/20 08:36:54;;;;;;;28.40;16.23;;;;;;;;;;4984416;28;20088;-69
2021/03/20 08:39:25;;;;;;;32.15;18.05;;;;;;;;;;4987020;28;21376;-69
2021/03/20 08:41:58;;;;;;;31.45;18.27;;;;;;;;;;4980695;28;20046;-69
2021/03/20 08:44:29;;;;;;;28.15;16.58;;;;;;;;;;4983509;28;20443;-70
2021/03/20 08:47:28;;;;;;;25.50;16.40;;;;;;;;;;4985007;28;20026;-69
2021/03/20 08:50:20;;;;;;;27.25;17.45;;;;;;;;;;4944123;28;20035;-70
2021/03/20 08:52:49;;;;;;;28.23;17.20;;;;;;;;;;4949277;28;20413;-69
2021/03/20 08:55:34;;;;;;;24.33;15.85;;;;;;;;;;4980767;28;20034;-69
2021/03/20 08:58:18;;;;;;;24.58;16.13;;;;;;;;;;4978013;28;20026;-69
2021/03/20 09:00:53;;;;;;;24.92;16.00;;;;;;;;;;4988789;28;20126;-70
2021/03/20 09:03:21;;;;;;;25.05;18.35;;;;;;;;;;4981005;28;20097;-69
2021/03/20 09:05:53;;;;;;;27.60;16.75;;;;;;;;;;4988411;28;20026;-69
2021/03/20 09:08:27;;;;;;;26.85;17.02;;;;;;;;;;4985506;28;20022;-70
2021/03/20 09:10:59;;;;;;;25.75;15.98;;;;;;;;;;4981621;28;20452;-69
2021/03/20 09:13:31;;;;;;;17.48;11.88;;;;;;;;;;4985986;28;20026;-69
2021/03/20 09:15:59;;;;;;;16.17;10.57;;;;;;;;;;4983975;28;20046;-70
2021/03/20 09:18:26;;;;;;;17.52;12.50;;;;;;;;;;4975726;28;20035;-70
2021/03/20 09:20:58;;;;;;;20.90;13.40;;;;;;;;;;4983500;28;20042;-69
2021/03/20 09:23:27;;;;;;;17.40;9.82;;;;;;;;;;4985686;28;20455;-69
2021/03/20 09:25:56;;;;;;;23.48;14.70;;;;;;;;;;4981651;28;20092;-70
2021/03/20 09:28:29;;;;;;;22.80;12.63;;;;;;;;;;4981763;28;20030;-69
2021/03/20 09:31:15;;;;;;;24.17;13.93;;;;;;;;;;4983196;28;20088;-68
2021/03/20 09:33:41;;;;;;;17.00;9.65;;;;;;;;;;4973544;28;20769;-68
2021/03/20 09:36:07;;;;;;;20.77;11.07;;;;;;;;;;4981275;28;20053;-69
2021/03/20 09:38:36;;;;;;;16.80;10.35;;;;;;;;;;4983270;28;20053;-69
2021/03/20 09:41:28;;;;;;;18.40;10.18;;;;;;;;;;4983832;28;20037;-69
2021/03/20 09:44:03;;;;;;;21.38;11.18;;;;;;;;;;4981055;28;20022;-69
2021/03/20 09:46:32;;;;;;;17.27;11.18;;;;;;;;;;4980629;28;20046;-69
2021/03/20 09:48:58;;;;;;;21.90;10.98;;;;;;;;;;4996434;28;20084;-69
2021/03/20 09:51:54;;;;;;;15.20;9.80;;;;;;;;;;4984716;28;20018;-69
2021/03/20 09:54:31;;;;;;;17.48;9.82;;;;;;;;;;4966644;28;20050;-69
2021/03/20 09:57:12;;;;;;;23.50;11.13;;;;;;;;;;4978493;28;20027;-69
2021/03/20 09:59:38;;;;;;;16.00;10.05;;;;;;;;;;4984277;28;20026;-69
2021/03/20 10:02:12;;;;;;;14.43;9.30;;;;;;;;;;4982128;28;20049;-69
2021/03/20 10:04:57;;;;;;;15.90;9.45;;;;;;;;;;4983227;28;20489;-68
2021/03/20 10:07:24;;;;;;;14.70;9.45;;;;;;;;;;4981768;28;20037;-68
2021/03/20 10:09:52;;;;;;;11.07;6.75;;;;;;;;;;4980902;28;20023;-68
2021/03/20 10:12:20;;;;;;;17.85;10.57;;;;;;;;;;4980996;28;20029;-68
2021/03/20 10:14:58;;;;;;;14.13;7.85;;;;;;;;;;4985347;28;20122;-68
2021/03/20 10:17:29;;;;;;;16.02;8.15;;;;;;;;;;4986025;28;20030;-69
2021/03/20 10:20:13;;;;;;;17.00;9.40;;;;;;;;;;4981712;28;20572;-69
2021/03/20 10:23:01;;;;;;;14.85;8.50;;;;;;;;;;4994064;28;20035;-68
2021/03/20 10:25:29;;;;;;;17.30;8.68;;;;;;;;;;4979815;28;20022;-68
2021/03/20 10:28:05;;;;;;;14.80;8.70;;;;;;;;;;4986968;28;20178;-68
2021/03/20 10:30:33;;;;;;;18.15;8.50;;;;;;;;;;4990935;28;20065;-68
2021/03/20 10:33:00;;;;;;;13.63;7.97;;;;;;;;;;4987881;28;20444;-69
2021/03/20 10:35:27;;;;;;;15.77;9.73;;;;;;;;;;4982445;28;20026;-69
2021/03/20 10:37:53;;;;;;;14.82;8.65;;;;;;;;;;4988695;28;20599;-68
2021/03/20 10:40:24;;;;;;;14.63;9.18;;;;;;;;;;4991620;28;20034;-68
2021/03/20 10:42:53;;;;;;;22.80;11.35;;;;;;;;;;4989067;28;20034;-67
2021/03/20 10:45:31;;;;;;;14.77;9.02;;;;;;;;;;4990002;28;20030;-69
2021/03/20 10:48:22;;;;;;;19.23;12.18;;;;;;;;;;4992636;28;20030;-68
2021/03/20 10:50:49;;;;;;;20.63;11.93;;;;;;;;;;4977546;28;20034;-68
2021/03/20 10:53:18;;;;;;;26.80;12.02;;;;;;;;;;4988872;28;20073;-69
2021/03/20 10:55:49;;;;;;;20.35;12.68;;;;;;;;;;4982439;28;20034;-68
2021/03/20 10:58:38;;;;;;;16.38;8.25;;;;;;;;;;4982049;28;20382;-68
2021/03/20 11:01:04;;;;;;;18.92;11.32;;;;;;;;;;4981732;28;20038;-68
2021/03/20 11:03:36;;;;;;;18.23;9.60;;;;;;;;;;4986724;28;20039;-68
2021/03/20 11:06:02;;;;;;;;;;;;;;;;;;4981781;28;20057;-69
2021/03/20 11:08:29;;;;;;;16.92;9.98;;;;;;;;;;4973723;28;20603;-68
2021/03/20 11:11:10;;;;;;;18.52;10.02;;;;;;;;;;4984036;28;20162;-68
2021/03/20 11:13:36;;;;;;;17.60;7.43;;;;;;;;;;4984508;28;20040;-68
2021/03/20 11:16:04;;;;;;;17.30;8.98;;;;;;;;;;4982344;28;20031;-68
2021/03/20 11:18:33;;;;;;;15.85;8.57;;;;;;;;;;4983396;28;20319;-69
2021/03/20 11:20:59;;;;;;;18.45;7.90;;;;;;;;;;4984419;28;20023;-69
2021/03/20 11:23:27;;;;;;;14.80;7.57;;;;;;;;;;4992552;28;20035;-69
2021/03/20 11:25:54;;;;;;;10.18;6.65;;;;;;;;;;4986615;28;20019;-69
2021/03/20 11:28:28;;;;;;;15.20;6.82;;;;;;;;;;4990729;28;20018;-68
2021/03/20 11:30:55;;;;;;;14.82;8.63;;;;;;;;;;4988609;28;20054;-69
2021/03/20 11:33:22;;;;;;;17.55;9.18;;;;;;;;;;4987523;28;20689;-68
2021/03/20 11:35:50;;;;;;;16.00;8.35;;;;;;;;;;4984033;28;20038;-68
2021/03/20 11:38:17;;;;;;;12.57;6.93;;;;;;;;;;4993658;28;20042;-68
2021/03/20 11:41:03;;;;;;;13.55;6.03;;;;;;;;;;4984450;28;20117;-68
2021/03/20 11:43:32;;;;;;;17.60;8.93;;;;;;;;;;4976649;28;20038;-68
2021/03/20 11:46:12;;;;;;;11.25;5.75;;;;;;;;;;4984694;28;20026;-68
2021/03/20 11:48:53;;;;;;;15.80;7.45;;;;;;;;;;4986307;28;20018;-68
2021/03/20 11:51:25;;;;;;;14.95;6.72;;;;;;;;;;4982277;28;20030;-68
2021/03/20 11:53:55;;;;;;;14.57;7.75;;;;;;;;;;4988659;28;20042;-68
2021/03/20 11:56:38;;;;;;;11.63;5.95;;;;;;;;;;4985069;28;20326;-68
2021/03/20 11:59:06;;;;;;;9.02;5.35;;;;;;;;;;4986543;28;20172;-69
2021/03/20 12:01:32;;;;;;;14.32;6.82;;;;;;;;;;4991049;28;20026;-68
2021/03/20 12:04:00;;;;;;;17.67;7.85;;;;;;;;;;4980776;28;20603;-68
2021/03/20 12:06:31;;;;;;;13.07;6.53;;;;;;;;;;4986596;28;20484;-70
2021/03/20 12:09:01;;;;;;;11.13;6.05;;;;;;;;;;4978871;28;20081;-70
2021/03/20 12:11:46;;;;;;;12.70;6.45;;;;;;;;;;4984764;28;20039;-69
2021/03/20 12:14:51;;;;;;;13.98;5.80;;;;;;;;;;4987031;28;20041;-69
2021/03/20 12:17:22;;;;;;;14.43;5.82;;;;;;;;;;4949386;29;20027;-69
2021/03/20 12:20:03;;;;;;;8.80;4.00;;;;;;;;;;4942012;29;20035;-69
2021/03/20 12:22:29;;;;;;;10.02;4.32;;;;;;;;;;4969437;28;20093;-69
2021/03/20 12:25:12;;;;;;;13.35;4.82;;;;;;;;;;4980775;28;20050;-69
2021/03/20 12:27:38;;;;;;;11.80;4.57;;;;;;;;;;4981706;28;20026;-69
2021/03/20 12:30:23;;;;;;;11.85;5.68;;;;;;;;;;4974754;28;20027;-68
2021/03/20 12:33:08;;;;;;;10.50;5.28;;;;;;;;;;4978618;28;20468;-68
2021/03/20 12:35:34;;;;;;;9.15;5.05;;;;;;;;;;4989866;28;20081;-68
2021/03/20 12:38:03;;;;;;;14.32;6.30;;;;;;;;;;4982802;28;20031;-70
2021/03/20 12:40:30;;;;;;;14.32;5.47;;;;;;;;;;4977689;28;20058;-69
2021/03/20 12:42:59;;;;;;;11.77;5.82;;;;;;;;;;4984176;28;20041;-68
2021/03/20 12:45:26;;;;;;;12.13;5.80;;;;;;;;;;4982657;28;20050;-68
2021/03/20 12:47:52;;;;;;;12.55;5.13;;;;;;;;;;4991190;28;20180;-70
2021/03/20 12:50:18;;;;;;;12.18;5.00;;;;;;;;;;4989298;28;20037;-68
2021/03/20 12:52:44;;;;;;;11.15;4.68;;;;;;;;;;4982051;28;20047;-68
2021/03/20 12:55:11;;;;;;;10.32;5.10;;;;;;;;;;4986572;28;20022;-68
2021/03/20 12:57:37;;;;;;;12.75;5.35;;;;;;;;;;4989085;28;20026;-68
2021/03/20 13:00:09;;;;;;;10.20;4.13;;;;;;;;;;4983609;28;20404;-68
2021/03/20 13:02:35;;;;;;;10.07;4.63;;;;;;;;;;4987147;28;20022;-68
2021/03/20 13:05:01;;;;;;;10.75;4.72;;;;;;;;;;4981810;28;20045;-68
2021/03/20 13:07:28;;;;;;;8.95;4.53;;;;;;;;;;4983780;28;20027;-68
2021/03/20 13:09:54;;;;;;;8.20;4.65;;;;;;;;;;4981947;28;20018;-68
2021/03/20 13:12:20;;;;;;;12.63;4.80;;;;;;;;;;4988252;28;20100;-68
2021/03/20 13:14:46;;;;;;;12.35;4.18;;;;;;;;;;4984624;28;20038;-67
2021/03/20 13:17:12;;;;;;;8.88;4.55;;;;;;;;;;4976435;28;20034;-69
2021/03/20 13:19:38;;;;;;;11.98;3.92;;;;;;;;;;4982471;28;20033;-71
2021/03/20 13:22:05;;;;;;;10.52;3.80;;;;;;;;;;4992985;28;20022;-69
2021/03/20 13:24:31;;;;;;;9.48;3.75;;;;;;;;;;4987549;28;20169;-68
2021/03/20 13:26:58;;;;;;;7.20;2.72;;;;;;;;;;4986888;28;20034;-68
2021/03/20 13:29:24;;;;;;;9.68;3.10;;;;;;;;;;4986509;28;20053;-68
2021/03/20 13:31:50;;;;;;;7.60;2.90;;;;;;;;;;4980913;28;20035;-67
2021/03/20 13:34:16;;;;;;;9.20;3.40;;;;;;;;;;4975504;28;20095;-67
2021/03/20 13:36:42;;;;;;;11.02;3.13;;;;;;;;;;4988081;28;20030;-68
2021/03/20 13:39:09;;;;;;;7.97;2.45;;;;;;;;;;4983456;28;20041;-67
2021/03/20 13:41:35;;;;;;;8.32;2.17;;;;;;;;;;4989964;28;20026;-69
2021/03/20 13:44:01;;;;;;;6.53;1.98;;;;;;;;;;4983707;28;20050;-68
2021/03/20 13:46:28;;;;;;;6.28;1.63;;;;;;;;;;4984162;28;20758;-70
2021/03/20 13:48:54;;;;;;;1.85;0.50;;;;;;;;;;4975660;28;20027;-70
2021/03/20 13:51:20;;;;;;;1.83;0.40;;;;;;;;;;4983585;28;20389;-68
2021/03/20 13:53:46;;;;;;;1.95;0.68;;;;;;;;;;4979539;28;20307;-71
2021/03/20 13:56:13;;;;;;;1.77;0.50;;;;;;;;;;4985609;28;20033;-70
2021/03/20 13:58:39;;;;;;;3.05;0.70;;;;;;;;;;4979327;28;20023;-68
2021/03/20 14:01:06;;;;;;;1.50;0.50;;;;;;;;;;4984171;28;20037;-70
2021/03/20 14:03:33;;;;;;;2.13;0.57;;;;;;;;;;4986535;28;20395;-70
2021/03/20 14:06:00;;;;;;;2.08;0.30;;;;;;;;;;4978785;28;20069;-68
2021/03/20 14:08:26;;;;;;;0.50;0.40;;;;;;;;;;4979306;28;20015;-69
2021/03/20 14:10:54;;;;;;;2.97;0.50;;;;;;;;;;4989963;28;20027;-69
2021/03/20 14:13:21;;;;;;;2.47;0.30;;;;;;;;;;4986216;28;20053;-69
2021/03/20 14:15:47;;;;;;;2.20;0.73;;;;;;;;;;4992934;28;20489;-71
2021/03/20 14:18:15;;;;;;;0.95;0.50;;;;;;;;;;4978520;28;20039;-70
2021/03/20 14:20:43;;;;;;;1.55;0.50;;;;;;;;;;4987690;28;20026;-69
2021/03/20 14:23:10;;;;;;;2.78;0.60;;;;;;;;;;4985448;28;20033;-69
2021/03/20 14:25:36;;;;;;;0.85;0.40;;;;;;;;;;4981900;28;20023;-69
2021/03/20 14:28:03;;;;;;;6.22;0.63;;;;;;;;;;4979479;28;20022;-71
2021/03/20 14:30:32;;;;;;;1.42;0.68;;;;;;;;;;4980430;28;20556;-72
2021/03/20 14:32:58;;;;;;;0.70;0.35;;;;;;;;;;4985951;28;20026;-70
2021/03/20 14:35:24;;;;;;;5.22;0.52;;;;;;;;;;4983632;28;20019;-68
2021/03/20 14:37:51;;;;;;;0.68;0.32;;;;;;;;;;4988121;28;20014;-68
2021/03/20 14:40:22;;;;;;;1.73;0.52;;;;;;;;;;4976310;28;20511;-69
2021/03/20 14:42:48;;;;;;;2.05;0.68;;;;;;;;;;4984540;28;20022;-68
2021/03/20 14:45:14;;;;;;;1.50;0.40;;;;;;;;;;4984154;28;20105;-68
2021/03/20 14:47:41;;;;;;;1.63;0.60;;;;;;;;;;4992621;28;20023;-68